Cynthiana, KY (41031)

10:16 AM EST on February 08, 2016 (GMT -0500)
Waste Water Treatment Plant | | Change Station
CLOSE
Current Station
Personal Weather Station
Location: Paris, KY
Elevation: 794 ft
Nearby Weather Stations
Active Advisory: Winter Weather Advisory

Elev 794 ft 38.22 °N, 84.25 °W | Updated 11 minutes ago

Overcast
Overcast
36.1 °F
Feels Like 32 °F
N
4.7
Wind Variable Wind from West

Today
High -- | Low -- °F
--% Chance of Precip.
Yesterday
High -- | Low -- °F
Precip. -- in
Pressure 29.70 in
Visibility 10.0 miles
Clouds Overcast 900 ft
Windchill 32 °F
Dew Point 32 °F
Humidity 84%
Rainfall 0.14 in
Snow Depth Not available.
7:36 AM 6:07 PM
New Moon, 0% visible
METAR KIOB 081455Z AUTO 25008KT 10SM OVC009 02/01 A2970 RMK AO2
Pressure 29.70 in
Visibility 10.0 miles
Clouds Overcast 900 ft
Windchill 32 °F
Dew Point 32 °F
Humidity 84%
Rainfall 0.14 in
Snow Depth Not available.
7:36 AM 6:07 PM
New Moon, 0% visible
METAR KIOB 081455Z AUTO 25008KT 10SM OVC009 02/01 A2970 RMK AO2

10-Day Weather Forecast

Almanac

Astronomy

Feb. 08, 2016 Rise Set
Actual Time
Civil Twilight
Nautical Twilight
Astronomical Twilight
Moon
Length of Visible Light
Length of Day
Tomorrow will be .
, % of the Moon is Illuminated

Today's Extremes

State Highs State Lows

Community

WunderPhotos

Upload Photos

1,891,450 photos uploaded!

WunderBlog® & News

Nearby

Air Quality

  Air Quality AQ Index Pollutant
Not available.

Snow Depth

Station Depth Elevation

Earthquake Activity

City Distance Mag. Time & Date
Minimum magnitude displayed is 2.5.

Coastal Water Temperatures

Place Temperature

Stations

Nearby Weather Stations

Station Location Temp. Windchill Dew Point Humidity Wind Precip. Elev Updated Type
                   

Watches & Warnings

Winter Weather Advisory
Issued: 2:34 AM CST Feb. 8, 2016 – National Weather Service

... Winter Weather Advisory remains in effect from 5 PM EST /4 PM
CST/ this afternoon to 6 PM EST /5 PM CST/ Tuesday...

* timing... this evening through at least Tuesday evening.

* Main impact... periods of moderate to briefly heavy snow showers
will impact travel at times. Roads may become slick and snow
covered... especially secondary and untreated surfaces.

* Other impacts... gusty winds along with moderate snow showers may
reduce visibility at times.

Precautionary/preparedness actions...

Research shows that more traffic accidents occur with an inch or
less of snow... before drivers realize that traction is reduced.
Don't become a statistic... slow down and leave extra distance
between vehicles.



Ams